createdAt,value
2018-09-11T00:01:34.937Z,3.60
2018-09-11T00:04:03.885Z,3.70
2018-09-11T00:06:32.393Z,3.40
2018-09-11T00:09:00.844Z,3.90
2018-09-11T00:11:29.289Z,3.50
2018-09-11T00:13:57.744Z,3.53
2018-09-11T00:16:26.149Z,3.60
2018-09-11T00:18:54.578Z,3.73
2018-09-11T00:21:23.020Z,3.70
2018-09-11T00:23:51.428Z,3.50
2018-09-11T00:26:19.861Z,3.17
2018-09-11T00:28:48.355Z,3.60
2018-09-11T00:31:16.736Z,4.13
2018-09-11T00:33:45.197Z,3.43
2018-09-11T00:36:13.618Z,2.97
2018-09-11T00:38:42.065Z,3.83
2018-09-11T00:41:10.477Z,3.83
2018-09-11T00:43:38.927Z,3.43
2018-09-11T00:46:19.142Z,3.63
2018-09-11T00:48:47.561Z,3.50
2018-09-11T00:51:15.962Z,3.30
2018-09-11T00:53:44.914Z,3.33
2018-09-11T00:56:13.302Z,3.57
2018-09-11T00:58:41.796Z,3.23
2018-09-11T01:01:10.197Z,3.50
2018-09-11T01:03:38.701Z,3.67
2018-09-11T01:06:07.332Z,3.13
2018-09-11T01:08:35.829Z,3.33
2018-09-11T01:11:04.247Z,3.40
2018-09-11T01:13:32.772Z,3.13
2018-09-11T01:16:01.167Z,3.33
2018-09-11T01:18:29.597Z,3.43
2018-09-11T01:20:57.991Z,3.47
2018-09-11T01:23:26.473Z,3.50
2018-09-11T01:25:54.849Z,3.60
2018-09-11T01:28:23.277Z,3.53
2018-09-11T01:30:51.837Z,3.77
2018-09-11T01:33:20.291Z,3.30
2018-09-11T01:35:48.748Z,3.17
2018-09-11T01:38:17.137Z,3.37
2018-09-11T01:40:45.561Z,3.57
2018-09-11T01:43:13.970Z,3.37
2018-09-11T01:45:42.394Z,3.60
2018-09-11T01:48:10.793Z,3.10
2018-09-11T01:50:39.224Z,3.00
2018-09-11T01:53:07.628Z,3.50
2018-09-11T01:55:36.074Z,3.27
2018-09-11T01:58:04.460Z,3.30
2018-09-11T02:00:32.909Z,3.30
2018-09-11T02:03:02.025Z,3.03
2018-09-11T02:05:30.482Z,3.37
2018-09-11T02:07:58.901Z,3.03
2018-09-11T02:10:27.600Z,3.37
2018-09-11T02:12:55.995Z,3.50
2018-09-11T02:15:24.475Z,3.40
2018-09-11T02:17:52.921Z,3.23
2018-09-11T02:20:21.401Z,3.57
2018-09-11T02:22:49.824Z,3.57
2018-09-11T02:25:18.281Z,3.43
2018-09-11T02:27:46.709Z,3.10
2018-09-11T02:30:15.118Z,3.40
2018-09-11T02:32:43.601Z,3.23
2018-09-11T02:35:12.049Z,3.20
2018-09-11T02:37:40.529Z,2.87
2018-09-11T02:40:08.962Z,3.47
2018-09-11T02:42:37.397Z,3.30
2018-09-11T02:45:06.293Z,3.47
2018-09-11T02:47:34.727Z,3.83
2018-09-11T02:50:03.759Z,3.93
2018-09-11T02:52:32.199Z,4.03
2018-09-11T02:55:00.669Z,3.60
2018-09-11T02:57:29.094Z,3.37
2018-09-11T02:59:57.488Z,3.80
2018-09-11T03:02:25.869Z,3.30
2018-09-11T03:04:54.354Z,3.80
2018-09-11T03:07:22.759Z,3.40
2018-09-11T03:09:51.320Z,3.60
2018-09-11T03:12:19.715Z,3.80
2018-09-11T03:14:49.958Z,3.23
2018-09-11T03:17:18.425Z,3.63
2018-09-11T03:19:46.870Z,3.03
2018-09-11T03:22:15.256Z,3.17
2018-09-11T03:24:43.680Z,3.30
2018-09-11T03:27:12.089Z,3.30
2018-09-11T03:29:40.573Z,3.10
2018-09-11T03:32:09.254Z,3.00
2018-09-11T03:34:37.681Z,3.73
2018-09-11T03:37:06.234Z,3.23
2018-09-11T03:39:34.693Z,3.40
2018-09-11T03:42:03.709Z,3.50
2018-09-11T03:44:32.130Z,3.10
2018-09-11T03:47:00.525Z,3.30
2018-09-11T03:49:28.957Z,3.33
2018-09-11T03:51:57.368Z,3.47
2018-09-11T03:54:25.801Z,3.83
2018-09-11T03:56:54.225Z,3.43
2018-09-11T03:59:22.653Z,3.50
2018-09-11T04:01:51.072Z,3.53
2018-09-11T04:04:19.465Z,3.20
2018-09-11T04:06:47.917Z,3.70
2018-09-11T04:09:16.305Z,3.53
2018-09-11T04:11:44.705Z,3.17
2018-09-11T04:14:13.119Z,3.93
2018-09-11T04:16:41.556Z,3.20
2018-09-11T04:19:09.953Z,3.70
2018-09-11T04:21:38.370Z,3.40
2018-09-11T04:24:06.828Z,3.57
2018-09-11T04:26:35.298Z,4.10
2018-09-11T04:29:03.832Z,4.20
2018-09-11T04:31:32.315Z,3.67
2018-09-11T04:34:00.810Z,3.80
2018-09-11T04:36:29.312Z,3.30
2018-09-11T04:38:57.709Z,3.77
2018-09-11T04:41:26.153Z,3.97
2018-09-11T04:43:54.617Z,3.90
2018-09-11T04:46:23.065Z,3.80
2018-09-11T04:48:51.497Z,4.30
2018-09-11T04:51:19.889Z,4.13
2018-09-11T04:53:48.379Z,3.87
2018-09-11T04:56:16.920Z,4.23
2018-09-11T04:58:45.232Z,3.60
2018-09-11T05:01:13.621Z,3.77
2018-09-11T05:03:42.057Z,4.33
2018-09-11T05:06:10.566Z,4.17
2018-09-11T05:08:39.067Z,4.10
2018-09-11T05:11:07.575Z,3.90
2018-09-11T05:13:36.083Z,3.93
2018-09-11T05:16:05.109Z,4.17
2018-09-11T05:18:33.562Z,3.93
2018-09-11T05:21:03.246Z,4.83
2018-09-11T05:23:31.691Z,3.97
2018-09-11T05:26:00.231Z,3.87
2018-09-11T05:28:28.653Z,4.27
2018-09-11T05:30:57.133Z,3.93
2018-09-11T05:33:29.457Z,4.17
2018-09-11T05:35:57.869Z,3.90
2018-09-11T05:38:26.825Z,3.90
2018-09-11T05:40:55.233Z,4.10
2018-09-11T05:43:23.677Z,4.30
2018-09-11T05:45:52.083Z,4.00
2018-09-11T05:48:20.477Z,4.20
2018-09-11T05:50:49.050Z,4.10
2018-09-11T05:53:17.477Z,4.10
2018-09-11T05:55:45.957Z,4.50
2018-09-11T05:58:14.519Z,4.20
2018-09-11T06:00:43.001Z,4.60
2018-09-11T06:03:12.262Z,4.50
2018-09-11T06:05:40.945Z,5.23
2018-09-11T06:08:09.230Z,4.53
2018-09-11T06:10:37.670Z,4.47
2018-09-11T06:13:06.327Z,4.77
2018-09-11T06:15:34.756Z,4.63
2018-09-11T06:18:03.476Z,5.37
2018-09-11T06:20:31.897Z,4.57
2018-09-11T06:23:00.306Z,5.20
2018-09-11T06:25:28.721Z,4.57
2018-09-11T06:27:57.142Z,4.40
2018-09-11T06:30:25.557Z,5.33
2018-09-11T06:32:53.969Z,4.93
2018-09-11T06:35:22.504Z,4.47
2018-09-11T06:37:50.903Z,4.13
2018-09-11T06:40:19.328Z,4.03
2018-09-11T06:42:47.761Z,4.30
2018-09-11T06:45:16.178Z,4.60
2018-09-11T06:47:44.617Z,4.50
2018-09-11T06:50:13.014Z,4.77
2018-09-11T06:52:41.433Z,4.57
2018-09-11T06:55:09.854Z,4.83
2018-09-11T06:57:38.308Z,4.97
2018-09-11T07:00:06.773Z,4.40
2018-09-11T07:02:35.209Z,4.30
2018-09-11T07:05:03.692Z,4.93
2018-09-11T07:07:32.341Z,4.27
2018-09-11T07:10:00.805Z,4.77
2018-09-11T07:12:29.221Z,5.13
2018-09-11T07:14:57.617Z,4.73
2018-09-11T07:17:26.033Z,4.57
2018-09-11T07:19:54.596Z,5.03
2018-09-11T07:22:22.960Z,4.63
2018-09-11T07:24:51.443Z,4.50
2018-09-11T07:27:20.077Z,4.50
2018-09-11T07:29:48.890Z,4.40
2018-09-11T07:32:17.412Z,4.60
2018-09-11T07:34:45.792Z,4.33
2018-09-11T07:37:14.185Z,4.53
2018-09-11T07:39:42.615Z,4.43
2018-09-11T07:42:11.013Z,4.30
2018-09-11T07:44:39.430Z,4.80
2018-09-11T07:47:07.846Z,4.53
2018-09-11T07:49:36.296Z,4.40
2018-09-11T07:52:04.697Z,4.67
2018-09-11T07:54:33.135Z,4.87
2018-09-11T07:57:01.917Z,4.50
2018-09-11T07:59:30.350Z,4.67
2018-09-11T08:01:58.741Z,4.07
2018-09-11T08:04:27.222Z,4.87
2018-09-11T08:06:55.638Z,4.13
2018-09-11T08:09:24.088Z,4.78
2018-09-11T08:11:52.471Z,4.45
2018-09-11T08:14:20.929Z,4.87
2018-09-11T08:16:49.318Z,4.60
2018-09-11T08:19:17.729Z,5.17
2018-09-11T08:21:46.114Z,4.33
2018-09-11T08:24:14.571Z,4.00
2018-09-11T08:26:43.018Z,4.15
2018-09-11T08:29:11.459Z,4.17
2018-09-11T08:31:39.853Z,4.67
2018-09-11T08:34:08.234Z,5.25
2018-09-11T08:36:36.645Z,5.12
2018-09-11T08:39:07.734Z,4.60
2018-09-11T08:41:36.362Z,4.45
2018-09-11T08:44:04.794Z,4.28
2018-09-11T08:46:33.267Z,4.50
2018-09-11T08:49:02.048Z,4.53
2018-09-11T08:51:30.489Z,4.28
2018-09-11T08:53:58.881Z,4.40
2018-09-11T08:56:27.325Z,4.33
2018-09-11T08:58:55.708Z,4.30
2018-09-11T09:01:24.132Z,4.50
2018-09-11T09:03:52.560Z,4.62
2018-09-11T09:06:21.006Z,4.25
2018-09-11T09:08:49.421Z,4.50
2018-09-11T09:11:17.849Z,4.70
2018-09-11T09:13:46.238Z,4.75
2018-09-11T09:16:14.670Z,4.85
2018-09-11T09:18:43.066Z,4.50
2018-09-11T09:21:11.462Z,4.37
2018-09-11T09:23:39.900Z,4.33
2018-09-11T09:26:08.317Z,4.03
2018-09-11T09:28:36.753Z,4.25
2018-09-11T09:31:05.177Z,4.08
2018-09-11T09:33:33.583Z,4.20
2018-09-11T09:36:01.968Z,4.22
2018-09-11T09:38:30.392Z,4.70
2018-09-11T09:40:58.787Z,3.65
2018-09-11T09:43:30.102Z,4.50
2018-09-11T09:45:58.521Z,4.40
2018-09-11T09:48:26.983Z,3.87
2018-09-11T09:50:55.475Z,4.17
2018-09-11T09:53:23.877Z,4.45
2018-09-11T09:55:52.306Z,5.00
2018-09-11T09:58:20.726Z,4.05
2018-09-11T10:00:54.357Z,4.20
2018-09-11T10:03:22.777Z,4.53
2018-09-11T10:05:51.216Z,4.10
2018-09-11T10:08:19.692Z,4.45
2018-09-11T10:10:48.085Z,5.08
2018-09-11T10:13:16.541Z,4.00
2018-09-11T10:15:44.928Z,4.10
2018-09-11T10:18:13.322Z,4.17
2018-09-11T10:20:42.357Z,4.10
2018-09-11T10:23:10.745Z,4.22
2018-09-11T10:25:39.157Z,3.70
2018-09-11T10:28:07.565Z,4.15
2018-09-11T10:30:36.013Z,3.50
2018-09-11T10:33:04.428Z,4.42
2018-09-11T10:35:33.432Z,4.17
2018-09-11T10:38:01.979Z,4.08
2018-09-11T10:40:30.423Z,4.28
2018-09-11T10:42:58.805Z,4.17
2018-09-11T10:45:27.237Z,3.65
2018-09-11T10:47:55.628Z,3.92
2018-09-11T10:50:24.072Z,4.08
2018-09-11T10:52:52.445Z,4.15
2018-09-11T10:55:20.882Z,4.22
2018-09-11T10:57:49.343Z,3.90
2018-09-11T11:00:17.865Z,4.20
2018-09-11T11:02:46.264Z,3.95
2018-09-11T11:05:14.763Z,3.58
2018-09-11T11:07:43.177Z,4.20
2018-09-11T11:10:11.724Z,3.67
2018-09-11T11:12:40.158Z,3.87
2018-09-11T11:15:08.630Z,3.62
2018-09-11T11:17:37.116Z,3.67
2018-09-11T11:20:05.561Z,3.90
2018-09-11T11:22:34.010Z,3.62
2018-09-11T11:25:03.012Z,3.92
2018-09-11T11:27:31.461Z,3.67
2018-09-11T11:29:59.865Z,3.80
2018-09-11T11:32:28.281Z,3.67
2018-09-11T11:34:56.685Z,4.37
2018-09-11T11:37:25.261Z,3.52
2018-09-11T11:39:53.553Z,4.17
2018-09-11T11:42:22.016Z,4.08
2018-09-11T11:44:50.420Z,3.35
2018-09-11T11:47:20.316Z,3.70
2018-09-11T11:49:49.420Z,3.12
2018-09-11T11:52:17.978Z,3.65
2018-09-11T11:54:46.468Z,3.70
2018-09-11T11:57:14.942Z,3.80
2018-09-11T11:59:43.442Z,4.45
2018-09-11T12:02:11.888Z,3.45
2018-09-11T12:04:40.352Z,3.98
2018-09-11T12:07:08.823Z,3.30
2018-09-11T12:09:37.260Z,3.85
2018-09-11T12:12:06.731Z,3.83
2018-09-11T12:14:35.159Z,3.87
2018-09-11T12:17:03.655Z,4.05
2018-09-11T12:19:32.122Z,3.52
2018-09-11T12:22:00.598Z,4.17
2018-09-11T12:24:29.005Z,4.15
2018-09-11T12:26:57.877Z,4.17
2018-09-11T12:29:26.417Z,4.28
2018-09-11T12:31:54.817Z,3.95
2018-09-11T12:34:23.308Z,4.78
2018-09-11T12:36:51.733Z,4.00
2018-09-11T12:39:20.137Z,4.30
2018-09-11T12:41:48.646Z,4.25
2018-09-11T12:44:17.097Z,3.80
2018-09-11T12:46:45.642Z,3.95
2018-09-11T12:49:13.998Z,4.40
2018-09-11T12:51:45.358Z,3.87
2018-09-11T12:54:14.049Z,3.77
2018-09-11T12:56:42.862Z,4.25
2018-09-11T12:59:15.961Z,4.70
2018-09-11T13:01:45.457Z,4.40
2018-09-11T13:04:13.843Z,4.30
2018-09-11T13:06:42.496Z,4.75
2018-09-11T13:09:10.952Z,4.35
2018-09-11T13:11:42.094Z,4.37
2018-09-11T13:14:10.542Z,4.58
2018-09-11T13:16:39.049Z,4.58
2018-09-11T13:19:07.460Z,4.28
2018-09-11T13:21:35.917Z,4.17
2018-09-11T13:24:04.337Z,3.95
2018-09-11T13:26:32.780Z,3.90
2018-09-11T13:29:01.943Z,4.40
2018-09-11T13:31:30.370Z,4.33
2018-09-11T13:33:58.985Z,3.77
2018-09-11T13:36:27.342Z,3.83
2018-09-11T13:38:55.793Z,5.20
2018-09-11T13:41:24.225Z,4.20
2018-09-11T13:43:52.617Z,4.00
2018-09-11T13:46:21.201Z,4.35
2018-09-11T13:48:49.605Z,4.35
2018-09-11T13:51:18.038Z,4.60
2018-09-11T13:53:46.440Z,4.15
2018-09-11T13:56:14.926Z,4.53
2018-09-11T13:58:43.329Z,4.40
2018-09-11T14:01:11.790Z,3.95
2018-09-11T14:03:40.254Z,4.80
2018-09-11T14:06:08.682Z,4.10
2018-09-11T14:08:37.163Z,4.42
2018-09-11T14:11:05.596Z,4.30
2018-09-11T14:13:34.128Z,5.00
2018-09-11T14:16:02.965Z,3.70
2018-09-11T14:18:31.409Z,3.77
2018-09-11T14:20:59.835Z,4.05
2018-09-11T14:23:28.272Z,4.67
2018-09-11T14:25:56.653Z,4.37
2018-09-11T14:28:25.106Z,4.62
2018-09-11T14:30:53.511Z,4.42
2018-09-11T14:33:21.953Z,4.20
2018-09-11T14:35:50.333Z,4.15
2018-09-11T14:38:18.853Z,4.40
2018-09-11T14:40:47.245Z,3.75
2018-09-11T14:43:15.652Z,4.03
2018-09-11T14:45:44.104Z,4.03
2018-09-11T14:48:12.577Z,3.98
2018-09-11T14:50:41.006Z,4.10
2018-09-11T14:53:09.448Z,4.90
2018-09-11T14:55:37.894Z,4.95
2018-09-11T14:58:06.697Z,4.17
2018-09-11T15:00:35.124Z,4.40
2018-09-11T15:03:03.505Z,4.30
2018-09-11T15:05:31.986Z,4.28
2018-09-11T15:08:00.411Z,4.50
2018-09-11T15:10:28.825Z,4.15
2018-09-11T15:12:57.218Z,4.40
2018-09-11T15:15:25.634Z,4.78
2018-09-11T15:17:54.092Z,4.17
2018-09-11T15:20:22.510Z,3.87
2018-09-11T15:22:50.897Z,4.50
2018-09-11T15:25:19.309Z,4.00
2018-09-11T15:27:47.702Z,4.05
2018-09-11T15:30:16.113Z,3.92
2018-09-11T15:32:44.505Z,3.87
2018-09-11T15:35:12.958Z,4.20
2018-09-11T15:37:41.342Z,4.03
2018-09-11T15:40:09.825Z,4.08
2018-09-11T15:42:38.233Z,4.05
2018-09-11T15:45:06.758Z,4.33
2018-09-11T15:47:35.154Z,4.37
2018-09-11T15:50:03.557Z,3.60
2018-09-11T15:52:32.003Z,3.90
2018-09-11T15:55:00.409Z,4.28
2018-09-11T15:57:28.861Z,3.85
2018-09-11T15:59:57.336Z,3.85
2018-09-11T16:02:25.740Z,3.52
2018-09-11T16:04:54.138Z,3.58
2018-09-11T16:07:22.649Z,3.67
2018-09-11T16:09:51.054Z,3.67
2018-09-11T16:12:19.493Z,4.30
2018-09-11T16:14:47.940Z,3.90
2018-09-11T16:17:16.399Z,3.83
2018-09-11T16:19:44.800Z,3.62
2018-09-11T16:22:13.331Z,4.10
2018-09-11T16:24:41.708Z,3.62
2018-09-11T16:27:10.159Z,3.52
2018-09-11T16:29:38.651Z,3.60
2018-09-11T16:32:06.865Z,3.60
2018-09-11T16:34:35.259Z,3.67
2018-09-11T16:37:03.658Z,3.72
2018-09-11T16:39:32.102Z,4.22
2018-09-11T16:42:00.480Z,4.12
2018-09-11T16:44:28.929Z,4.10
2018-09-11T16:46:57.324Z,4.40
2018-09-11T16:49:25.753Z,4.00
2018-09-11T16:51:54.160Z,4.55
2018-09-11T16:54:22.566Z,3.95
2018-09-11T16:56:51.854Z,4.72
2018-09-11T16:59:20.261Z,4.37
2018-09-11T17:01:48.719Z,4.03
2018-09-11T17:04:17.162Z,4.03
2018-09-11T17:06:45.577Z,4.28
2018-09-11T17:09:13.997Z,3.75
2018-09-11T17:11:42.402Z,4.05
2018-09-11T17:14:10.879Z,3.98
2018-09-11T17:16:39.260Z,3.77
2018-09-11T17:19:08.017Z,3.70
2018-09-11T17:21:36.478Z,4.30
2018-09-11T17:24:04.984Z,4.45
2018-09-11T17:26:33.457Z,4.75
2018-09-11T17:29:02.264Z,4.37
2018-09-11T17:31:30.679Z,4.72
2018-09-11T17:33:59.082Z,5.78
2018-09-11T17:36:27.492Z,4.62
2018-09-11T17:38:55.874Z,5.08
2018-09-11T17:41:24.293Z,5.28
2018-09-11T17:43:52.692Z,5.62
2018-09-11T17:46:21.125Z,5.95
2018-09-11T17:48:49.525Z,5.55
2018-09-11T17:51:17.925Z,5.65
2018-09-11T17:53:46.310Z,6.08
2018-09-11T17:56:14.721Z,5.45
2018-09-11T17:58:43.178Z,5.83
2018-09-11T18:01:11.602Z,5.97
2018-09-11T18:03:39.986Z,6.30
2018-09-11T18:06:08.638Z,5.97
2018-09-11T18:08:37.087Z,6.25
2018-09-11T18:11:05.533Z,5.67
2018-09-11T18:13:33.921Z,5.72
2018-09-11T18:16:03.045Z,6.25
2018-09-11T18:18:31.442Z,6.03
2018-09-11T18:20:59.853Z,6.60
2018-09-11T18:23:28.264Z,7.70
2018-09-11T18:25:56.746Z,7.25
2018-09-11T18:28:25.241Z,7.97
2018-09-11T18:30:53.629Z,7.25
2018-09-11T18:33:22.051Z,8.00
2018-09-11T18:35:50.412Z,6.80
2018-09-11T18:38:25.426Z,6.90
2018-09-11T18:40:53.820Z,8.13
2018-09-11T18:43:22.233Z,8.10
2018-09-11T18:45:50.696Z,7.85
2018-09-11T18:48:19.106Z,8.98
2018-09-11T18:50:47.553Z,7.97
2018-09-11T18:53:16.013Z,8.50
2018-09-11T18:55:44.476Z,7.67
2018-09-11T18:58:12.894Z,7.92
2018-09-11T19:00:42.389Z,7.75
2018-09-11T19:03:10.793Z,7.80
2018-09-11T19:05:39.193Z,7.03
2018-09-11T19:08:08.871Z,7.47
2018-09-11T19:10:37.765Z,7.45
2018-09-11T19:13:06.241Z,7.20
2018-09-11T19:15:34.753Z,8.05
2018-09-11T19:18:03.232Z,6.85
2018-09-11T19:20:31.650Z,7.37
2018-09-11T19:23:00.352Z,6.92
2018-09-11T19:25:28.730Z,6.75
2018-09-11T19:27:57.190Z,7.10
2018-09-11T19:30:25.570Z,6.97
2018-09-11T19:32:54.261Z,6.50
2018-09-11T19:35:23.312Z,6.42
2018-09-11T19:37:51.730Z,6.05
2018-09-11T19:40:20.501Z,6.20
2018-09-11T19:42:48.873Z,6.62
2018-09-11T19:45:17.498Z,6.40
2018-09-11T19:47:45.878Z,6.55
2018-09-11T19:50:14.366Z,6.50
2018-09-11T19:52:42.704Z,6.47
2018-09-11T19:55:11.113Z,6.10
2018-09-11T19:57:39.525Z,9.63
2018-09-11T20:00:08.058Z,10.08
2018-09-11T20:02:35.429Z,8.75
2018-09-11T20:05:04.333Z,7.83
2018-09-11T20:07:32.709Z,7.40
2018-09-11T20:10:01.132Z,7.65
2018-09-11T20:12:29.508Z,8.70
2018-09-11T20:14:57.890Z,7.40
2018-09-11T20:17:26.318Z,7.35
2018-09-11T20:19:54.737Z,7.72
2018-09-11T20:22:23.206Z,6.85
2018-09-11T20:24:51.601Z,6.42
2018-09-11T20:27:20.018Z,7.50
2018-09-11T20:29:48.394Z,7.53
2018-09-11T20:32:16.797Z,8.18
2018-09-11T20:34:45.208Z,7.05
2018-09-11T20:37:13.642Z,6.60
2018-09-11T20:39:42.022Z,7.17
2018-09-11T20:42:10.421Z,6.58
2018-09-11T20:44:38.842Z,7.53
2018-09-11T20:47:07.273Z,7.47
2018-09-11T20:49:35.649Z,6.80
2018-09-11T20:52:04.229Z,7.25
2018-09-11T20:54:32.641Z,6.67
2018-09-11T20:57:01.094Z,7.12
2018-09-11T20:59:29.469Z,7.40
2018-09-11T21:01:57.913Z,7.90
2018-09-11T21:04:26.330Z,7.22
2018-09-11T21:06:55.326Z,8.45
2018-09-11T21:09:23.757Z,8.38
2018-09-11T21:11:52.142Z,7.58
2018-09-11T21:14:20.547Z,7.62
2018-09-11T21:16:48.924Z,7.35
2018-09-11T21:19:17.421Z,6.95
2018-09-11T21:21:45.881Z,6.87
2018-09-11T21:24:14.301Z,7.12
2018-09-11T21:26:42.690Z,7.70
2018-09-11T21:29:11.124Z,6.47
2018-09-11T21:31:39.491Z,7.00
2018-09-11T21:34:07.970Z,6.47
2018-09-11T21:36:36.345Z,6.35
2018-09-11T21:39:06.735Z,6.47
2018-09-11T21:41:35.143Z,6.50
2018-09-11T21:44:03.634Z,6.47
2018-09-11T21:46:32.029Z,5.80
2018-09-11T21:49:00.467Z,6.00
2018-09-11T21:51:28.869Z,6.12
2018-09-11T21:53:57.321Z,6.00
2018-09-11T21:56:25.721Z,7.03
2018-09-11T21:58:54.179Z,7.60
2018-09-11T22:01:27.957Z,6.58
2018-09-11T22:03:56.397Z,5.90
2018-09-11T22:06:24.822Z,5.75
2018-09-11T22:08:53.185Z,6.22
2018-09-11T22:11:21.586Z,6.40
2018-09-11T22:13:49.977Z,6.33
2018-09-11T22:16:18.393Z,6.33
2018-09-11T22:18:46.800Z,6.15
2018-09-11T22:21:15.221Z,6.35
2018-09-11T22:23:43.597Z,6.25
2018-09-11T22:26:12.026Z,6.28
2018-09-11T22:28:40.404Z,6.58
2018-09-11T22:31:08.859Z,6.25
2018-09-11T22:33:37.261Z,6.30
2018-09-11T22:36:05.761Z,6.25
2018-09-11T22:38:34.218Z,6.33
2018-09-11T22:41:02.741Z,6.23
2018-09-11T22:43:31.127Z,6.03
2018-09-11T22:46:00.081Z,5.62
2018-09-11T22:48:28.873Z,5.80
2018-09-11T22:50:57.376Z,5.95
2018-09-11T22:53:25.889Z,5.67
2018-09-11T22:55:54.293Z,6.27
2018-09-11T22:58:22.704Z,6.23
2018-09-11T23:00:51.165Z,6.13
2018-09-11T23:03:19.604Z,5.80
2018-09-11T23:05:47.989Z,6.00
2018-09-11T23:08:16.428Z,5.77
2018-09-11T23:10:44.845Z,5.90
2018-09-11T23:13:13.281Z,6.17
2018-09-11T23:15:41.653Z,6.90
2018-09-11T23:18:10.094Z,6.03
2018-09-11T23:20:38.549Z,6.73
2018-09-11T23:23:07.079Z,5.77
2018-09-11T23:25:35.459Z,6.60
2018-09-11T23:28:03.897Z,5.73
2018-09-11T23:30:32.320Z,6.57
2018-09-11T23:33:00.759Z,5.67
2018-09-11T23:35:29.146Z,5.70
2018-09-11T23:37:57.578Z,5.83
2018-09-11T23:40:26.025Z,5.27
2018-09-11T23:42:54.817Z,6.03
2018-09-11T23:45:23.215Z,6.70
2018-09-11T23:47:51.593Z,5.90
2018-09-11T23:50:20.051Z,5.80
2018-09-11T23:52:48.453Z,5.80
2018-09-11T23:55:16.897Z,5.90
2018-09-11T23:57:45.301Z,5.67
